sensor_id;sensor_type;location;lat;lon;timestamp;P1;durP1;ratioP1;P2;durP2;ratioP2
72791;SDS011;60907;53.268;8.764;2023-07-28T00:01:29;1.10;;;0.80;;
72791;SDS011;60907;53.268;8.764;2023-07-28T00:03:55;0.98;;;0.80;;
72791;SDS011;60907;53.268;8.764;2023-07-28T00:06:21;1.08;;;0.70;;
72791;SDS011;60907;53.268;8.764;2023-07-28T00:08:46;1.00;;;0.90;;
72791;SDS011;60907;53.268;8.764;2023-07-28T00:11:13;1.38;;;0.70;;
72791;SDS011;60907;53.268;8.764;2023-07-28T00:13:39;2.47;;;1.30;;
72791;SDS011;60907;53.268;8.764;2023-07-28T00:16:05;0.80;;;0.75;;
72791;SDS011;60907;53.268;8.764;2023-07-28T00:18:31;1.48;;;1.02;;
72791;SDS011;60907;53.268;8.764;2023-07-28T00:20:57;1.42;;;1.10;;
72791;SDS011;60907;53.268;8.764;2023-07-28T00:23:22;1.05;;;0.80;;
72791;SDS011;60907;53.268;8.764;2023-07-28T00:25:48;1.48;;;1.10;;
72791;SDS011;60907;53.268;8.764;2023-07-28T00:28:13;2.38;;;1.10;;
72791;SDS011;60907;53.268;8.764;2023-07-28T00:30:39;1.30;;;0.88;;
72791;SDS011;60907;53.268;8.764;2023-07-28T00:33:05;1.40;;;1.17;;
72791;SDS011;60907;53.268;8.764;2023-07-28T00:35:30;1.88;;;1.13;;
72791;SDS011;60907;53.268;8.764;2023-07-28T00:37:56;1.63;;;1.20;;
72791;SDS011;60907;53.268;8.764;2023-07-28T00:40:22;1.48;;;0.80;;
72791;SDS011;60907;53.268;8.764;2023-07-28T00:42:47;1.40;;;1.00;;
72791;SDS011;60907;53.268;8.764;2023-07-28T00:45:13;1.40;;;0.95;;
72791;SDS011;60907;53.268;8.764;2023-07-28T00:47:39;1.75;;;1.17;;
72791;SDS011;60907;53.268;8.764;2023-07-28T00:50:04;2.13;;;1.33;;
72791;SDS011;60907;53.268;8.764;2023-07-28T00:52:31;2.75;;;1.63;;
72791;SDS011;60907;53.268;8.764;2023-07-28T00:54:56;2.80;;;1.60;;
72791;SDS011;60907;53.268;8.764;2023-07-28T00:57:22;3.78;;;1.73;;
72791;SDS011;60907;53.268;8.764;2023-07-28T00:59:47;4.65;;;2.00;;
72791;SDS011;60907;53.268;8.764;2023-07-28T01:02:13;4.07;;;2.33;;
72791;SDS011;60907;53.268;8.764;2023-07-28T01:04:39;4.75;;;2.40;;
72791;SDS011;60907;53.268;8.764;2023-07-28T01:09:50;6.25;;;2.85;;
72791;SDS011;60907;53.268;8.764;2023-07-28T01:12:18;6.85;;;2.90;;
72791;SDS011;60907;53.268;8.764;2023-07-28T01:14:44;7.00;;;2.55;;
72791;SDS011;60907;53.268;8.764;2023-07-28T01:17:09;4.70;;;2.60;;
72791;SDS011;60907;53.268;8.764;2023-07-28T01:19:35;5.18;;;2.53;;
72791;SDS011;60907;53.268;8.764;2023-07-28T01:22:48;5.07;;;3.05;;
72791;SDS011;60907;53.268;8.764;2023-07-28T01:27:58;5.93;;;3.00;;
72791;SDS011;60907;53.268;8.764;2023-07-28T01:30:24;5.13;;;2.60;;
72791;SDS011;60907;53.268;8.764;2023-07-28T01:32:53;6.10;;;2.78;;
72791;SDS011;60907;53.268;8.764;2023-07-28T01:35:19;5.15;;;2.42;;
72791;SDS011;60907;53.268;8.764;2023-07-28T01:37:44;6.97;;;3.30;;
72791;SDS011;60907;53.268;8.764;2023-07-28T01:40:15;5.82;;;3.42;;
72791;SDS011;60907;53.268;8.764;2023-07-28T01:42:44;8.85;;;4.05;;
72791;SDS011;60907;53.268;8.764;2023-07-28T01:45:09;7.30;;;4.03;;
72791;SDS011;60907;53.268;8.764;2023-07-28T01:47:35;12.15;;;4.75;;
72791;SDS011;60907;53.268;8.764;2023-07-28T01:50:00;7.82;;;3.38;;
72791;SDS011;60907;53.268;8.764;2023-07-28T01:52:26;6.95;;;3.80;;
72791;SDS011;60907;53.268;8.764;2023-07-28T01:54:52;6.82;;;3.65;;
72791;SDS011;60907;53.268;8.764;2023-07-28T01:57:17;7.53;;;2.95;;
72791;SDS011;60907;53.268;8.764;2023-07-28T01:59:42;6.72;;;3.47;;
72791;SDS011;60907;53.268;8.764;2023-07-28T02:02:08;7.90;;;4.35;;
72791;SDS011;60907;53.268;8.764;2023-07-28T02:04:38;6.43;;;3.20;;
72791;SDS011;60907;53.268;8.764;2023-07-28T02:07:03;7.32;;;3.10;;
72791;SDS011;60907;53.268;8.764;2023-07-28T02:09:28;7.30;;;3.63;;
72791;SDS011;60907;53.268;8.764;2023-07-28T02:11:54;9.03;;;4.00;;
72791;SDS011;60907;53.268;8.764;2023-07-28T02:14:19;7.95;;;3.25;;
72791;SDS011;60907;53.268;8.764;2023-07-28T02:16:45;8.45;;;3.85;;
72791;SDS011;60907;53.268;8.764;2023-07-28T02:19:10;7.63;;;3.37;;
72791;SDS011;60907;53.268;8.764;2023-07-28T02:21:35;9.68;;;3.53;;
72791;SDS011;60907;53.268;8.764;2023-07-28T02:24:01;6.47;;;3.40;;
72791;SDS011;60907;53.268;8.764;2023-07-28T02:26:26;6.05;;;3.25;;
72791;SDS011;60907;53.268;8.764;2023-07-28T02:28:52;7.00;;;3.38;;
72791;SDS011;60907;53.268;8.764;2023-07-28T02:31:17;8.07;;;3.87;;
72791;SDS011;60907;53.268;8.764;2023-07-28T02:33:42;9.77;;;4.43;;
72791;SDS011;60907;53.268;8.764;2023-07-28T02:36:08;7.60;;;3.83;;
72791;SDS011;60907;53.268;8.764;2023-07-28T02:38:33;8.20;;;3.90;;
72791;SDS011;60907;53.268;8.764;2023-07-28T02:40:59;8.93;;;4.20;;
72791;SDS011;60907;53.268;8.764;2023-07-28T02:43:24;9.90;;;4.30;;
72791;SDS011;60907;53.268;8.764;2023-07-28T02:45:56;8.73;;;4.03;;
72791;SDS011;60907;53.268;8.764;2023-07-28T02:50:49;7.30;;;3.83;;
72791;SDS011;60907;53.268;8.764;2023-07-28T02:53:15;8.05;;;4.10;;
72791;SDS011;60907;53.268;8.764;2023-07-28T02:55:44;9.35;;;5.00;;
72791;SDS011;60907;53.268;8.764;2023-07-28T02:58:10;9.43;;;4.50;;
72791;SDS011;60907;53.268;8.764;2023-07-28T03:00:42;8.50;;;4.47;;
72791;SDS011;60907;53.268;8.764;2023-07-28T03:05:38;9.30;;;4.47;;
72791;SDS011;60907;53.268;8.764;2023-07-28T03:08:04;11.05;;;4.72;;
72791;SDS011;60907;53.268;8.764;2023-07-28T03:10:30;7.80;;;4.05;;
72791;SDS011;60907;53.268;8.764;2023-07-28T03:12:56;11.07;;;4.80;;
72791;SDS011;60907;53.268;8.764;2023-07-28T03:15:22;10.50;;;4.40;;
72791;SDS011;60907;53.268;8.764;2023-07-28T03:17:48;11.88;;;5.20;;
72791;SDS011;60907;53.268;8.764;2023-07-28T03:20:14;9.38;;;4.47;;
72791;SDS011;60907;53.268;8.764;2023-07-28T03:22:40;9.95;;;4.85;;
72791;SDS011;60907;53.268;8.764;2023-07-28T03:25:05;12.40;;;5.30;;
72791;SDS011;60907;53.268;8.764;2023-07-28T03:27:31;11.65;;;6.00;;
72791;SDS011;60907;53.268;8.764;2023-07-28T03:29:56;7.60;;;4.80;;
72791;SDS011;60907;53.268;8.764;2023-07-28T03:32:22;9.95;;;4.90;;
72791;SDS011;60907;53.268;8.764;2023-07-28T03:34:47;14.23;;;4.83;;
72791;SDS011;60907;53.268;8.764;2023-07-28T03:37:13;8.85;;;4.60;;
72791;SDS011;60907;53.268;8.764;2023-07-28T03:39:38;9.57;;;4.78;;
72791;SDS011;60907;53.268;8.764;2023-07-28T03:42:04;8.73;;;4.70;;
72791;SDS011;60907;53.268;8.764;2023-07-28T03:44:29;10.18;;;4.88;;
72791;SDS011;60907;53.268;8.764;2023-07-28T03:46:55;11.13;;;4.60;;
72791;SDS011;60907;53.268;8.764;2023-07-28T03:49:20;11.25;;;5.35;;
72791;SDS011;60907;53.268;8.764;2023-07-28T03:51:46;9.75;;;4.40;;
72791;SDS011;60907;53.268;8.764;2023-07-28T03:54:11;9.25;;;4.30;;
72791;SDS011;60907;53.268;8.764;2023-07-28T03:56:37;10.88;;;5.28;;
72791;SDS011;60907;53.268;8.764;2023-07-28T03:59:02;10.37;;;5.43;;
72791;SDS011;60907;53.268;8.764;2023-07-28T04:01:28;9.40;;;4.17;;
72791;SDS011;60907;53.268;8.764;2023-07-28T04:03:53;9.00;;;4.15;;
72791;SDS011;60907;53.268;8.764;2023-07-28T04:06:19;7.88;;;3.92;;
72791;SDS011;60907;53.268;8.764;2023-07-28T04:08:45;8.23;;;3.70;;
72791;SDS011;60907;53.268;8.764;2023-07-28T04:11:10;7.00;;;3.78;;
72791;SDS011;60907;53.268;8.764;2023-07-28T04:13:35;8.67;;;4.07;;
72791;SDS011;60907;53.268;8.764;2023-07-28T04:16:01;6.27;;;3.00;;
72791;SDS011;60907;53.268;8.764;2023-07-28T04:18:26;6.40;;;3.47;;
72791;SDS011;60907;53.268;8.764;2023-07-28T04:20:52;7.43;;;2.92;;
72791;SDS011;60907;53.268;8.764;2023-07-28T04:23:18;6.30;;;2.85;;
72791;SDS011;60907;53.268;8.764;2023-07-28T04:25:43;5.38;;;2.90;;
72791;SDS011;60907;53.268;8.764;2023-07-28T04:28:09;5.93;;;3.10;;
72791;SDS011;60907;53.268;8.764;2023-07-28T04:30:34;4.77;;;2.83;;
72791;SDS011;60907;53.268;8.764;2023-07-28T04:33:00;5.22;;;3.08;;
72791;SDS011;60907;53.268;8.764;2023-07-28T04:35:25;4.43;;;2.55;;
72791;SDS011;60907;53.268;8.764;2023-07-28T04:37:50;6.28;;;3.53;;
72791;SDS011;60907;53.268;8.764;2023-07-28T04:40:16;5.20;;;2.97;;
72791;SDS011;60907;53.268;8.764;2023-07-28T04:42:41;6.15;;;3.13;;
72791;SDS011;60907;53.268;8.764;2023-07-28T04:45:07;6.20;;;3.30;;
72791;SDS011;60907;53.268;8.764;2023-07-28T04:47:33;5.85;;;3.00;;
72791;SDS011;60907;53.268;8.764;2023-07-28T04:49:58;6.85;;;3.97;;
72791;SDS011;60907;53.268;8.764;2023-07-28T04:52:24;6.88;;;3.22;;
72791;SDS011;60907;53.268;8.764;2023-07-28T04:54:49;6.20;;;3.63;;
72791;SDS011;60907;53.268;8.764;2023-07-28T04:57:15;7.73;;;3.60;;
72791;SDS011;60907;53.268;8.764;2023-07-28T04:59:40;7.57;;;3.53;;
72791;SDS011;60907;53.268;8.764;2023-07-28T05:02:06;8.00;;;3.65;;
72791;SDS011;60907;53.268;8.764;2023-07-28T05:04:31;6.63;;;3.65;;
72791;SDS011;60907;53.268;8.764;2023-07-28T05:06:57;8.30;;;4.03;;
72791;SDS011;60907;53.268;8.764;2023-07-28T05:09:22;7.60;;;4.00;;
72791;SDS011;60907;53.268;8.764;2023-07-28T05:11:47;7.53;;;3.50;;
72791;SDS011;60907;53.268;8.764;2023-07-28T05:14:13;7.93;;;3.83;;
72791;SDS011;60907;53.268;8.764;2023-07-28T05:16:38;7.88;;;3.80;;
72791;SDS011;60907;53.268;8.764;2023-07-28T05:19:05;6.65;;;3.60;;
72791;SDS011;60907;53.268;8.764;2023-07-28T05:21:31;7.03;;;3.28;;
72791;SDS011;60907;53.268;8.764;2023-07-28T05:23:57;7.37;;;3.47;;
72791;SDS011;60907;53.268;8.764;2023-07-28T05:26:22;6.27;;;3.53;;
72791;SDS011;60907;53.268;8.764;2023-07-28T05:28:47;6.87;;;3.17;;
72791;SDS011;60907;53.268;8.764;2023-07-28T05:31:13;6.72;;;3.28;;
72791;SDS011;60907;53.268;8.764;2023-07-28T05:33:40;8.30;;;3.72;;
72791;SDS011;60907;53.268;8.764;2023-07-28T05:36:05;8.88;;;4.30;;
72791;SDS011;60907;53.268;8.764;2023-07-28T05:38:31;6.37;;;3.27;;
72791;SDS011;60907;53.268;8.764;2023-07-28T05:40:57;7.40;;;3.72;;
72791;SDS011;60907;53.268;8.764;2023-07-28T05:43:23;6.63;;;3.08;;
72791;SDS011;60907;53.268;8.764;2023-07-28T05:45:48;6.80;;;3.63;;
72791;SDS011;60907;53.268;8.764;2023-07-28T05:48:14;8.80;;;3.50;;
72791;SDS011;60907;53.268;8.764;2023-07-28T05:50:39;6.27;;;3.50;;
72791;SDS011;60907;53.268;8.764;2023-07-28T05:53:04;8.07;;;3.40;;
72791;SDS011;60907;53.268;8.764;2023-07-28T05:55:30;6.60;;;3.50;;
72791;SDS011;60907;53.268;8.764;2023-07-28T05:57:55;6.80;;;3.33;;
72791;SDS011;60907;53.268;8.764;2023-07-28T06:00:21;7.77;;;4.27;;
72791;SDS011;60907;53.268;8.764;2023-07-28T06:02:47;9.20;;;3.70;;
72791;SDS011;60907;53.268;8.764;2023-07-28T06:05:12;7.45;;;3.47;;
72791;SDS011;60907;53.268;8.764;2023-07-28T06:07:38;6.47;;;3.70;;
72791;SDS011;60907;53.268;8.764;2023-07-28T06:10:03;7.30;;;3.47;;
72791;SDS011;60907;53.268;8.764;2023-07-28T06:12:29;7.25;;;3.70;;
72791;SDS011;60907;53.268;8.764;2023-07-28T06:14:54;6.68;;;3.70;;
72791;SDS011;60907;53.268;8.764;2023-07-28T06:17:20;5.45;;;3.42;;
72791;SDS011;60907;53.268;8.764;2023-07-28T06:19:45;6.33;;;3.53;;
72791;SDS011;60907;53.268;8.764;2023-07-28T06:22:10;7.63;;;3.80;;
72791;SDS011;60907;53.268;8.764;2023-07-28T06:24:36;5.95;;;3.42;;
72791;SDS011;60907;53.268;8.764;2023-07-28T06:27:01;8.20;;;3.65;;
72791;SDS011;60907;53.268;8.764;2023-07-28T06:29:32;6.32;;;3.33;;
72791;SDS011;60907;53.268;8.764;2023-07-28T06:31:57;5.72;;;3.15;;
72791;SDS011;60907;53.268;8.764;2023-07-28T06:34:23;6.33;;;2.80;;
72791;SDS011;60907;53.268;8.764;2023-07-28T06:36:48;6.93;;;3.50;;
72791;SDS011;60907;53.268;8.764;2023-07-28T06:39:13;6.73;;;3.30;;
72791;SDS011;60907;53.268;8.764;2023-07-28T06:41:39;5.63;;;3.40;;
72791;SDS011;60907;53.268;8.764;2023-07-28T06:44:05;6.63;;;3.13;;
72791;SDS011;60907;53.268;8.764;2023-07-28T06:46:30;8.18;;;3.33;;
72791;SDS011;60907;53.268;8.764;2023-07-28T06:48:56;5.20;;;2.92;;
72791;SDS011;60907;53.268;8.764;2023-07-28T06:51:21;4.85;;;3.08;;
72791;SDS011;60907;53.268;8.764;2023-07-28T06:53:47;5.90;;;3.03;;
72791;SDS011;60907;53.268;8.764;2023-07-28T06:56:12;6.15;;;2.50;;
72791;SDS011;60907;53.268;8.764;2023-07-28T06:58:37;6.35;;;3.83;;
72791;SDS011;60907;53.268;8.764;2023-07-28T07:01:03;5.67;;;3.03;;
72791;SDS011;60907;53.268;8.764;2023-07-28T07:03:28;5.18;;;3.00;;
72791;SDS011;60907;53.268;8.764;2023-07-28T07:05:54;6.78;;;3.38;;
72791;SDS011;60907;53.268;8.764;2023-07-28T07:08:19;7.82;;;3.50;;
72791;SDS011;60907;53.268;8.764;2023-07-28T07:10:51;6.90;;;3.20;;
72791;SDS011;60907;53.268;8.764;2023-07-28T07:13:17;4.72;;;2.50;;
72791;SDS011;60907;53.268;8.764;2023-07-28T07:15:43;5.72;;;3.17;;
72791;SDS011;60907;53.268;8.764;2023-07-28T07:18:08;8.25;;;3.40;;
72791;SDS011;60907;53.268;8.764;2023-07-28T07:20:34;7.53;;;3.90;;
72791;SDS011;60907;53.268;8.764;2023-07-28T07:23:00;5.28;;;3.22;;
72791;SDS011;60907;53.268;8.764;2023-07-28T07:25:26;8.00;;;3.75;;
72791;SDS011;60907;53.268;8.764;2023-07-28T07:27:52;5.28;;;2.80;;
72791;SDS011;60907;53.268;8.764;2023-07-28T07:30:17;4.32;;;2.40;;
72791;SDS011;60907;53.268;8.764;2023-07-28T07:32:43;2.67;;;1.58;;
72791;SDS011;60907;53.268;8.764;2023-07-28T07:35:08;3.42;;;1.90;;
72791;SDS011;60907;53.268;8.764;2023-07-28T07:37:34;2.28;;;1.10;;
72791;SDS011;60907;53.268;8.764;2023-07-28T07:39:59;3.40;;;1.70;;
72791;SDS011;60907;53.268;8.764;2023-07-28T07:42:26;3.25;;;1.83;;
72791;SDS011;60907;53.268;8.764;2023-07-28T07:44:52;2.30;;;1.30;;
72791;SDS011;60907;53.268;8.764;2023-07-28T07:47:17;2.50;;;1.50;;
72791;SDS011;60907;53.268;8.764;2023-07-28T07:49:43;2.50;;;1.42;;
72791;SDS011;60907;53.268;8.764;2023-07-28T07:52:09;2.88;;;1.48;;
72791;SDS011;60907;53.268;8.764;2023-07-28T07:54:35;2.75;;;1.77;;
72791;SDS011;60907;53.268;8.764;2023-07-28T07:57:01;2.35;;;1.52;;
72791;SDS011;60907;53.268;8.764;2023-07-28T07:59:27;2.20;;;1.40;;
72791;SDS011;60907;53.268;8.764;2023-07-28T08:01:55;2.22;;;1.30;;
72791;SDS011;60907;53.268;8.764;2023-07-28T08:04:21;2.70;;;1.60;;
72791;SDS011;60907;53.268;8.764;2023-07-28T08:06:46;2.47;;;1.40;;
72791;SDS011;60907;53.268;8.764;2023-07-28T08:09:12;2.35;;;1.40;;
72791;SDS011;60907;53.268;8.764;2023-07-28T08:11:39;1.70;;;1.30;;
72791;SDS011;60907;53.268;8.764;2023-07-28T08:14:04;2.05;;;1.40;;
72791;SDS011;60907;53.268;8.764;2023-07-28T08:16:30;2.45;;;1.08;;
72791;SDS011;60907;53.268;8.764;2023-07-28T08:18:55;2.28;;;1.30;;
72791;SDS011;60907;53.268;8.764;2023-07-28T08:21:21;1.75;;;1.20;;
72791;SDS011;60907;53.268;8.764;2023-07-28T08:23:47;1.90;;;1.20;;
72791;SDS011;60907;53.268;8.764;2023-07-28T08:26:13;3.45;;;1.85;;
72791;SDS011;60907;53.268;8.764;2023-07-28T08:28:39;2.40;;;1.58;;
72791;SDS011;60907;53.268;8.764;2023-07-28T08:31:04;1.90;;;1.30;;
72791;SDS011;60907;53.268;8.764;2023-07-28T08:33:31;1.92;;;1.20;;
72791;SDS011;60907;53.268;8.764;2023-07-28T08:35:56;1.90;;;1.20;;
72791;SDS011;60907;53.268;8.764;2023-07-28T08:38:21;5.03;;;1.13;;
72791;SDS011;60907;53.268;8.764;2023-07-28T08:40:47;2.03;;;1.30;;
72791;SDS011;60907;53.268;8.764;2023-07-28T08:43:12;2.60;;;1.50;;
72791;SDS011;60907;53.268;8.764;2023-07-28T08:45:38;2.20;;;1.30;;
72791;SDS011;60907;53.268;8.764;2023-07-28T08:48:03;2.10;;;1.33;;
72791;SDS011;60907;53.268;8.764;2023-07-28T08:50:29;2.47;;;1.33;;
72791;SDS011;60907;53.268;8.764;2023-07-28T08:52:56;2.30;;;1.40;;
72791;SDS011;60907;53.268;8.764;2023-07-28T08:55:21;2.28;;;1.25;;
72791;SDS011;60907;53.268;8.764;2023-07-28T08:57:47;1.70;;;1.00;;
72791;SDS011;60907;53.268;8.764;2023-07-28T09:00:13;2.17;;;1.25;;
72791;SDS011;60907;53.268;8.764;2023-07-28T09:02:39;2.42;;;1.50;;
72791;SDS011;60907;53.268;8.764;2023-07-28T09:05:05;2.63;;;1.85;;
72791;SDS011;60907;53.268;8.764;2023-07-28T09:07:37;2.50;;;1.70;;
72791;SDS011;60907;53.268;8.764;2023-07-28T09:10:02;3.22;;;1.85;;
72791;SDS011;60907;53.268;8.764;2023-07-28T09:12:32;2.60;;;1.83;;
72791;SDS011;60907;53.268;8.764;2023-07-28T09:14:57;3.67;;;1.88;;
72791;SDS011;60907;53.268;8.764;2023-07-28T09:17:23;4.70;;;2.63;;
72791;SDS011;60907;53.268;8.764;2023-07-28T09:19:49;4.50;;;2.40;;
72791;SDS011;60907;53.268;8.764;2023-07-28T09:22:18;7.03;;;2.45;;
72791;SDS011;60907;53.268;8.764;2023-07-28T09:24:45;5.70;;;2.78;;
72791;SDS011;60907;53.268;8.764;2023-07-28T09:27:32;5.47;;;2.95;;
72791;SDS011;60907;53.268;8.764;2023-07-28T09:29:56;5.78;;;3.28;;
72791;SDS011;60907;53.268;8.764;2023-07-28T09:32:29;4.70;;;3.10;;
72791;SDS011;60907;53.268;8.764;2023-07-28T09:35:10;6.32;;;3.55;;
72791;SDS011;60907;53.268;8.764;2023-07-28T09:37:38;7.60;;;3.78;;
72791;SDS011;60907;53.268;8.764;2023-07-28T09:40:08;7.22;;;4.28;;
72791;SDS011;60907;53.268;8.764;2023-07-28T09:42:38;5.97;;;3.55;;
72791;SDS011;60907;53.268;8.764;2023-07-28T09:45:05;7.25;;;3.50;;
72791;SDS011;60907;53.268;8.764;2023-07-28T09:49:57;5.22;;;3.60;;
72791;SDS011;60907;53.268;8.764;2023-07-28T09:52:24;8.60;;;3.70;;
72791;SDS011;60907;53.268;8.764;2023-07-28T09:54:50;4.82;;;3.33;;
72791;SDS011;60907;53.268;8.764;2023-07-28T09:57:19;5.97;;;3.40;;
72791;SDS011;60907;53.268;8.764;2023-07-28T09:59:45;9.30;;;3.15;;
72791;SDS011;60907;53.268;8.764;2023-07-28T10:02:12;5.43;;;2.70;;
72791;SDS011;60907;53.268;8.764;2023-07-28T10:04:38;3.88;;;2.58;;
72791;SDS011;60907;53.268;8.764;2023-07-28T10:07:06;3.13;;;1.98;;
72791;SDS011;60907;53.268;8.764;2023-07-28T10:09:32;2.47;;;1.70;;
72791;SDS011;60907;53.268;8.764;2023-07-28T10:11:59;2.25;;;1.40;;
72791;SDS011;60907;53.268;8.764;2023-07-28T10:14:26;2.53;;;1.75;;
72791;SDS011;60907;53.268;8.764;2023-07-28T10:16:53;3.25;;;1.65;;
72791;SDS011;60907;53.268;8.764;2023-07-28T10:19:24;2.85;;;2.00;;
72791;SDS011;60907;53.268;8.764;2023-07-28T10:21:50;2.55;;;1.67;;
72791;SDS011;60907;53.268;8.764;2023-07-28T10:24:49;3.00;;;1.65;;
72791;SDS011;60907;53.268;8.764;2023-07-28T10:27:29;2.63;;;1.50;;
72791;SDS011;60907;53.268;8.764;2023-07-28T10:30:02;2.50;;;1.70;;
72791;SDS011;60907;53.268;8.764;2023-07-28T10:32:48;2.17;;;1.45;;
72791;SDS011;60907;53.268;8.764;2023-07-28T10:37:51;2.63;;;1.55;;
72791;SDS011;60907;53.268;8.764;2023-07-28T10:40:30;4.82;;;1.67;;
72791;SDS011;60907;53.268;8.764;2023-07-28T10:42:58;3.15;;;1.88;;
72791;SDS011;60907;53.268;8.764;2023-07-28T10:45:27;4.15;;;1.88;;
72791;SDS011;60907;53.268;8.764;2023-07-28T10:50:20;5.38;;;3.17;;
72791;SDS011;60907;53.268;8.764;2023-07-28T10:52:46;5.60;;;3.13;;
72791;SDS011;60907;53.268;8.764;2023-07-28T10:55:15;4.43;;;3.28;;
72791;SDS011;60907;53.268;8.764;2023-07-28T10:57:45;4.93;;;3.20;;
72791;SDS011;60907;53.268;8.764;2023-07-28T11:00:12;5.90;;;3.75;;
72791;SDS011;60907;53.268;8.764;2023-07-28T11:02:42;6.35;;;3.35;;
72791;SDS011;60907;53.268;8.764;2023-07-28T11:05:13;3.85;;;2.60;;
72791;SDS011;60907;53.268;8.764;2023-07-28T11:07:43;4.78;;;2.55;;
72791;SDS011;60907;53.268;8.764;2023-07-28T11:10:09;4.32;;;2.30;;
72791;SDS011;60907;53.268;8.764;2023-07-28T11:12:38;3.03;;;2.38;;
72791;SDS011;60907;53.268;8.764;2023-07-28T11:15:06;5.70;;;2.65;;
72791;SDS011;60907;53.268;8.764;2023-07-28T11:17:35;3.00;;;2.20;;
72791;SDS011;60907;53.268;8.764;2023-07-28T11:22:27;4.55;;;2.17;;
72791;SDS011;60907;53.268;8.764;2023-07-28T11:24:52;4.13;;;2.47;;
72791;SDS011;60907;53.268;8.764;2023-07-28T11:27:18;4.93;;;2.83;;
72791;SDS011;60907;53.268;8.764;2023-07-28T11:29:43;5.60;;;2.78;;
72791;SDS011;60907;53.268;8.764;2023-07-28T11:32:09;6.80;;;2.95;;
72791;SDS011;60907;53.268;8.764;2023-07-28T11:34:37;5.07;;;2.90;;
72791;SDS011;60907;53.268;8.764;2023-07-28T11:37:03;6.20;;;3.47;;
72791;SDS011;60907;53.268;8.764;2023-07-28T11:39:30;5.05;;;2.97;;
72791;SDS011;60907;53.268;8.764;2023-07-28T11:41:56;5.20;;;3.15;;
72791;SDS011;60907;53.268;8.764;2023-07-28T11:44:22;6.32;;;3.47;;
72791;SDS011;60907;53.268;8.764;2023-07-28T11:46:49;4.95;;;3.90;;
72791;SDS011;60907;53.268;8.764;2023-07-28T11:49:19;3.53;;;2.78;;
72791;SDS011;60907;53.268;8.764;2023-07-28T11:51:48;6.07;;;3.28;;
72791;SDS011;60907;53.268;8.764;2023-07-28T11:54:18;6.28;;;3.05;;
72791;SDS011;60907;53.268;8.764;2023-07-28T11:56:47;3.63;;;2.42;;
72791;SDS011;60907;53.268;8.764;2023-07-28T11:59:19;6.55;;;3.15;;
72791;SDS011;60907;53.268;8.764;2023-07-28T12:04:35;5.28;;;3.20;;
72791;SDS011;60907;53.268;8.764;2023-07-28T12:07:08;4.53;;;2.80;;
72791;SDS011;60907;53.268;8.764;2023-07-28T12:09:57;4.97;;;2.70;;
72791;SDS011;60907;53.268;8.764;2023-07-28T12:12:25;6.38;;;2.90;;
72791;SDS011;60907;53.268;8.764;2023-07-28T12:14:52;5.00;;;3.25;;
72791;SDS011;60907;53.268;8.764;2023-07-28T12:17:18;6.43;;;2.90;;
72791;SDS011;60907;53.268;8.764;2023-07-28T12:22:40;6.50;;;3.40;;
72791;SDS011;60907;53.268;8.764;2023-07-28T12:25:06;5.43;;;3.55;;
72791;SDS011;60907;53.268;8.764;2023-07-28T12:27:32;8.75;;;3.17;;
72791;SDS011;60907;53.268;8.764;2023-07-28T12:29:58;5.40;;;3.10;;
72791;SDS011;60907;53.268;8.764;2023-07-28T12:32:23;5.35;;;2.92;;
72791;SDS011;60907;53.268;8.764;2023-07-28T12:34:52;6.30;;;2.93;;
72791;SDS011;60907;53.268;8.764;2023-07-28T12:37:17;4.22;;;2.65;;
72791;SDS011;60907;53.268;8.764;2023-07-28T12:39:44;5.72;;;2.38;;
72791;SDS011;60907;53.268;8.764;2023-07-28T12:42:10;2.73;;;1.97;;
72791;SDS011;60907;53.268;8.764;2023-07-28T12:44:36;4.10;;;1.90;;
72791;SDS011;60907;53.268;8.764;2023-07-28T12:47:02;3.92;;;2.25;;
72791;SDS011;60907;53.268;8.764;2023-07-28T12:49:28;2.78;;;1.90;;
72791;SDS011;60907;53.268;8.764;2023-07-28T12:51:54;3.83;;;2.13;;
72791;SDS011;60907;53.268;8.764;2023-07-28T12:54:21;3.75;;;1.88;;
72791;SDS011;60907;53.268;8.764;2023-07-28T12:56:47;3.50;;;2.28;;
72791;SDS011;60907;53.268;8.764;2023-07-28T12:59:13;3.20;;;2.10;;
72791;SDS011;60907;53.268;8.764;2023-07-28T13:01:38;3.20;;;2.30;;
72791;SDS011;60907;53.268;8.764;2023-07-28T13:04:04;2.80;;;2.17;;
72791;SDS011;60907;53.268;8.764;2023-07-28T13:06:29;3.37;;;2.60;;
72791;SDS011;60907;53.268;8.764;2023-07-28T13:08:55;3.07;;;1.73;;
72791;SDS011;60907;53.268;8.764;2023-07-28T13:11:20;3.43;;;2.20;;
72791;SDS011;60907;53.268;8.764;2023-07-28T13:13:45;4.45;;;2.13;;
72791;SDS011;60907;53.268;8.764;2023-07-28T13:16:11;3.00;;;2.10;;
72791;SDS011;60907;53.268;8.764;2023-07-28T13:18:36;3.50;;;1.87;;
72791;SDS011;60907;53.268;8.764;2023-07-28T13:21:01;4.20;;;2.00;;
72791;SDS011;60907;53.268;8.764;2023-07-28T13:23:27;2.72;;;2.00;;
72791;SDS011;60907;53.268;8.764;2023-07-28T13:25:52;2.97;;;2.10;;
72791;SDS011;60907;53.268;8.764;2023-07-28T13:28:18;3.33;;;2.03;;
72791;SDS011;60907;53.268;8.764;2023-07-28T13:30:43;3.20;;;1.80;;
72791;SDS011;60907;53.268;8.764;2023-07-28T13:33:09;2.90;;;2.28;;
72791;SDS011;60907;53.268;8.764;2023-07-28T13:35:34;3.63;;;1.90;;
72791;SDS011;60907;53.268;8.764;2023-07-28T13:38:00;2.80;;;2.30;;
72791;SDS011;60907;53.268;8.764;2023-07-28T13:40:25;3.42;;;2.70;;
72791;SDS011;60907;53.268;8.764;2023-07-28T13:42:50;4.83;;;1.83;;
72791;SDS011;60907;53.268;8.764;2023-07-28T13:45:16;3.60;;;2.23;;
72791;SDS011;60907;53.268;8.764;2023-07-28T13:47:41;2.28;;;1.70;;
72791;SDS011;60907;53.268;8.764;2023-07-28T13:50:07;3.33;;;2.00;;
72791;SDS011;60907;53.268;8.764;2023-07-28T13:52:32;2.33;;;1.85;;
72791;SDS011;60907;53.268;8.764;2023-07-28T13:54:58;2.55;;;1.95;;
72791;SDS011;60907;53.268;8.764;2023-07-28T13:57:23;2.67;;;1.80;;
72791;SDS011;60907;53.268;8.764;2023-07-28T13:59:49;3.25;;;2.00;;
72791;SDS011;60907;53.268;8.764;2023-07-28T14:02:16;2.75;;;2.00;;
72791;SDS011;60907;53.268;8.764;2023-07-28T14:04:42;3.10;;;2.17;;
72791;SDS011;60907;53.268;8.764;2023-07-28T14:07:08;2.83;;;1.90;;
72791;SDS011;60907;53.268;8.764;2023-07-28T14:09:33;2.35;;;1.80;;
72791;SDS011;60907;53.268;8.764;2023-07-28T14:11:59;3.13;;;1.73;;
72791;SDS011;60907;53.268;8.764;2023-07-28T14:14:24;3.95;;;2.17;;
72791;SDS011;60907;53.268;8.764;2023-07-28T14:16:49;2.22;;;1.70;;
72791;SDS011;60907;53.268;8.764;2023-07-28T14:19:15;2.55;;;2.08;;
72791;SDS011;60907;53.268;8.764;2023-07-28T14:21:40;2.03;;;1.70;;
72791;SDS011;60907;53.268;8.764;2023-07-28T14:24:06;1.67;;;1.43;;
72791;SDS011;60907;53.268;8.764;2023-07-28T14:26:31;3.63;;;1.80;;
72791;SDS011;60907;53.268;8.764;2023-07-28T14:28:57;2.83;;;1.60;;
72791;SDS011;60907;53.268;8.764;2023-07-28T14:31:22;2.42;;;1.50;;
72791;SDS011;60907;53.268;8.764;2023-07-28T14:33:47;1.90;;;1.60;;
72791;SDS011;60907;53.268;8.764;2023-07-28T14:36:13;2.20;;;2.00;;
72791;SDS011;60907;53.268;8.764;2023-07-28T14:38:38;2.40;;;1.67;;
72791;SDS011;60907;53.268;8.764;2023-07-28T14:41:04;3.85;;;2.10;;
72791;SDS011;60907;53.268;8.764;2023-07-28T14:43:29;3.40;;;1.83;;
72791;SDS011;60907;53.268;8.764;2023-07-28T14:45:55;5.93;;;2.65;;
72791;SDS011;60907;53.268;8.764;2023-07-28T14:48:20;2.28;;;1.52;;
72791;SDS011;60907;53.268;8.764;2023-07-28T14:50:46;2.23;;;1.80;;
72791;SDS011;60907;53.268;8.764;2023-07-28T14:55:55;2.70;;;2.22;;
72791;SDS011;60907;53.268;8.764;2023-07-28T14:58:20;5.00;;;2.20;;
72791;SDS011;60907;53.268;8.764;2023-07-28T15:00:46;3.85;;;2.28;;
72791;SDS011;60907;53.268;8.764;2023-07-28T15:03:11;3.03;;;2.10;;
72791;SDS011;60907;53.268;8.764;2023-07-28T15:05:36;2.72;;;1.60;;
72791;SDS011;60907;53.268;8.764;2023-07-28T15:08:02;4.20;;;3.33;;
72791;SDS011;60907;53.268;8.764;2023-07-28T15:10:27;4.95;;;4.28;;
72791;SDS011;60907;53.268;8.764;2023-07-28T15:12:53;3.43;;;2.03;;